Time,TemperatureF,DewpointF,PressureIn,WindDirection,WindDirectionDegrees,WindSpeedMPH,WindSpeedGustMPH,Humidity,HourlyPrecipIn,Conditions,Clouds,dailyrainin,SoftwareType,DateUTC
2013-06-29 00:14:00,63.1,62.0,29.56,SW,227,0.0,1.0,97,0.00,,,0.00,weatherlink.com 1.10,2013-06-29 04:14:00,
2013-06-29 00:29:00,62.8,62.0,29.56,SW,227,1.0,1.0,97,0.00,,,0.00,weatherlink.com 1.10,2013-06-29 04:29:00,
2013-06-29 00:44:00,62.8,62.0,29.55,SSW,205,1.0,2.0,97,0.00,,,0.00,weatherlink.com 1.10,2013-06-29 04:44:00,
2013-06-29 00:59:00,62.5,61.0,29.55,SSW,205,0.0,1.0,96,0.00,,,0.00,weatherlink.com 1.10,2013-06-29 04:59:00,
2013-06-29 01:14:00,62.2,61.0,29.55,SSW,205,0.0,1.0,97,0.00,,,0.00,weatherlink.com 1.10,2013-06-29 05:14:00,
2013-06-29 01:29:00,61.9,61.0,29.55,SSW,205,0.0,1.0,97,0.00,,,0.00,weatherlink.com 1.10,2013-06-29 05:29:00,
2013-06-29 01:44:00,62.3,62.0,29.55,SSW,213,1.0,1.0,97,0.00,,,0.00,weatherlink.com 1.10,2013-06-29 05:44:00,
2013-06-29 01:59:00,62.3,62.0,29.55,SSW,213,1.0,1.0,97,0.00,,,0.00,weatherlink.com 1.10,2013-06-29 05:59:00,
2013-06-29 02:14:00,61.7,61.0,29.55,SSW,202,0.0,1.0,97,0.00,,,0.00,weatherlink.com 1.10,2013-06-29 06:14:00,
2013-06-29 02:29:00,61.9,61.0,29.55,SSW,202,1.0,2.0,97,0.00,,,0.00,weatherlink.com 1.10,2013-06-29 06:29:00,
2013-06-29 02:44:00,62.2,62.0,29.55,WSW,247,3.0,3.0,98,0.00,,,0.00,weatherlink.com 1.10,2013-06-29 06:44:00,
2013-06-29 02:59:00,62.1,62.0,29.54,WSW,244,0.0,2.0,98,0.00,,,0.00,weatherlink.com 1.10,2013-06-29 06:59:00,
2013-06-29 03:14:00,61.8,61.0,29.54,WSW,244,0.0,2.0,97,0.00,,,0.00,weatherlink.com 1.10,2013-06-29 07:14:00,
2013-06-29 03:29:00,61.4,61.0,29.54,WSW,244,1.0,1.0,97,0.00,,,0.00,weatherlink.com 1.10,2013-06-29 07:29:00,
2013-06-29 03:44:00,61.5,61.0,29.54,WSW,244,0.0,1.0,97,0.00,,,0.00,weatherlink.com 1.10,2013-06-29 07:44:00,
2013-06-29 03:59:00,61.1,60.0,29.54,WSW,244,0.0,1.0,97,0.00,,,0.00,weatherlink.com 1.10,2013-06-29 07:59:00,
2013-06-29 04:14:00,61.0,60.0,29.55,WSW,244,0.0,1.0,97,0.00,,,0.00,weatherlink.com 1.10,2013-06-29 08:14:00,
2013-06-29 04:29:00,60.7,60.0,29.54,WSW,244,0.0,0.0,97,0.00,,,0.00,weatherlink.com 1.10,2013-06-29 08:29:00,
2013-06-29 04:44:00,60.5,60.0,29.54,WSW,244,0.0,0.0,97,0.00,,,0.00,weatherlink.com 1.10,2013-06-29 08:44:00,
2013-06-29 04:59:00,60.6,60.0,29.55,WSW,244,0.0,1.0,97,0.00,,,0.00,weatherlink.com 1.10,2013-06-29 08:59:00,
2013-06-29 05:14:00,61.0,61.0,29.55,WSW,244,1.0,2.0,98,0.00,,,0.00,weatherlink.com 1.10,2013-06-29 09:14:00,
2013-06-29 05:29:00,61.2,61.0,29.55,WSW,244,0.0,1.0,98,0.00,,,0.00,weatherlink.com 1.10,2013-06-29 09:29:00,
2013-06-29 05:44:00,61.6,61.0,29.56,WSW,244,0.0,2.0,98,0.00,,,0.00,weatherlink.com 1.10,2013-06-29 09:44:00,
2013-06-29 05:59:00,61.5,61.0,29.57,WSW,244,0.0,2.0,98,0.00,,,0.00,weatherlink.com 1.10,2013-06-29 09:59:00,
2013-06-29 06:14:00,61.7,61.0,29.56,WSW,244,0.0,2.0,98,0.00,,,0.00,weatherlink.com 1.10,2013-06-29 10:14:00,
2013-06-29 06:29:00,61.4,61.0,29.57,WNW,298,1.0,1.0,98,0.00,,,0.00,weatherlink.com 1.10,2013-06-29 10:29:00,
2013-06-29 06:44:00,61.4,61.0,29.57,NNE,29,0.0,1.0,98,0.00,,,0.00,weatherlink.com 1.10,2013-06-29 10:44:00,
2013-06-29 06:59:00,61.5,61.0,29.57,NNE,29,0.0,2.0,98,0.00,,,0.00,weatherlink.com 1.10,2013-06-29 10:59:00,
2013-06-29 07:14:00,61.7,61.0,29.58,WNW,298,0.0,2.0,98,0.00,,,0.00,weatherlink.com 1.10,2013-06-29 11:14:00,
2013-06-29 07:29:00,62.2,62.0,29.58,NNW,340,1.0,2.0,98,0.00,,,0.00,weatherlink.com 1.10,2013-06-29 11:29:00,
2013-06-29 07:45:00,62.4,62.0,29.57,SSW,194,1.0,2.0,98,0.00,,,0.00,weatherlink.com 1.10,2013-06-29 11:45:00,
2013-06-29 07:59:00,62.8,62.0,29.58,SW,215,1.0,2.0,98,0.01,,,0.01,weatherlink.com 1.10,2013-06-29 11:59:00,
2013-06-29 08:14:00,63.0,63.0,29.57,North,360,1.0,2.0,98,0.01,,,0.01,weatherlink.com 1.10,2013-06-29 12:14:00,
2013-06-29 08:29:00,63.4,63.0,29.58,NE,48,0.0,2.0,98,0.01,,,0.01,weatherlink.com 1.10,2013-06-29 12:29:00,
2013-06-29 08:44:00,63.8,63.0,29.58,South,190,0.0,2.0,98,0.01,,,0.01,weatherlink.com 1.10,2013-06-29 12:44:00,
2013-06-29 08:59:00,64.2,64.0,29.59,SSW,202,1.0,3.0,98,0.00,,,0.01,weatherlink.com 1.10,2013-06-29 12:59:00,
2013-06-29 09:15:00,64.6,64.0,29.59,SW,221,0.0,2.0,98,0.00,,,0.01,weatherlink.com 1.10,2013-06-29 13:15:00,
2013-06-29 09:30:00,65.4,65.0,29.59,NNW,341,1.0,3.0,97,0.00,,,0.01,weatherlink.com 1.10,2013-06-29 13:30:00,
2013-06-29 09:45:00,66.3,64.0,29.59,WSW,248,0.0,3.0,93,0.00,,,0.01,weatherlink.com 1.10,2013-06-29 13:45:00,
2013-06-29 10:00:00,66.9,65.0,29.59,ESE,121,1.0,3.0,92,0.00,,,0.01,weatherlink.com 1.10,2013-06-29 14:00:00,
2013-06-29 10:15:00,67.5,64.0,29.59,NNE,17,0.0,3.0,89,0.00,,,0.01,weatherlink.com 1.10,2013-06-29 14:15:00,
2013-06-29 10:30:00,68.3,65.0,29.59,SW,225,3.0,3.0,89,0.00,,,0.01,weatherlink.com 1.10,2013-06-29 14:30:00,
2013-06-29 10:45:00,68.1,65.0,29.59,North,350,0.0,3.0,90,0.00,,,0.01,weatherlink.com 1.10,2013-06-29 14:45:00,
2013-06-29 11:00:00,68.3,64.0,29.59,SE,142,1.0,3.0,87,0.00,,,0.01,weatherlink.com 1.10,2013-06-29 15:00:00,
2013-06-29 11:15:00,68.8,64.0,29.60,SSW,208,2.0,3.0,84,0.00,,,0.01,weatherlink.com 1.10,2013-06-29 15:15:00,
2013-06-29 11:30:00,69.1,65.0,29.59,South,169,1.0,3.0,85,0.00,,,0.01,weatherlink.com 1.10,2013-06-29 15:30:00,
2013-06-29 11:45:00,68.9,65.0,29.60,West,275,1.0,4.0,86,0.00,,,0.01,weatherlink.com 1.10,2013-06-29 15:45:00,
2013-06-29 12:00:00,68.5,65.0,29.60,SW,230,1.0,2.0,88,0.00,,,0.01,weatherlink.com 1.10,2013-06-29 16:00:00,
2013-06-29 12:15:00,68.9,66.0,29.60,SW,235,0.0,2.0,89,0.00,,,0.01,weatherlink.com 1.10,2013-06-29 16:15:00,
2013-06-29 12:30:00,69.3,65.0,29.60,South,173,2.0,3.0,85,0.00,,,0.01,weatherlink.com 1.10,2013-06-29 16:30:00,
2013-06-29 12:45:00,69.9,65.0,29.60,West,276,1.0,3.0,85,0.00,,,0.01,weatherlink.com 1.10,2013-06-29 16:45:00,
2013-06-29 13:00:00,70.0,65.0,29.60,SSW,211,3.0,4.0,84,0.00,,,0.01,weatherlink.com 1.10,2013-06-29 17:00:00,
2013-06-29 13:15:00,70.4,65.0,29.60,South,171,1.0,5.0,83,0.00,,,0.01,weatherlink.com 1.10,2013-06-29 17:15:00,
2013-06-29 13:30:00,70.9,66.0,29.60,East,90,2.0,6.0,85,0.00,,,0.01,weatherlink.com 1.10,2013-06-29 17:30:00,
2013-06-29 13:45:00,70.7,66.0,29.59,NNE,26,1.0,3.0,86,0.00,,,0.01,weatherlink.com 1.10,2013-06-29 17:45:00,
2013-06-29 14:00:00,70.6,66.0,29.60,NNE,28,2.0,6.0,84,0.00,,,0.01,weatherlink.com 1.10,2013-06-29 18:00:00,
2013-06-29 14:15:00,70.6,65.0,29.60,East,92,4.0,10.0,83,0.00,,,0.01,weatherlink.com 1.10,2013-06-29 18:15:00,
2013-06-29 14:30:00,69.0,64.0,29.61,NE,53,4.0,8.0,85,0.00,,,0.01,weatherlink.com 1.10,2013-06-29 18:30:00,
2013-06-29 14:45:00,68.4,64.0,29.61,ESE,103,3.0,8.0,85,0.00,,,0.01,weatherlink.com 1.10,2013-06-29 18:45:00,
2013-06-29 15:00:00,68.8,64.0,29.61,NNE,33,3.0,7.0,85,0.00,,,0.01,weatherlink.com 1.10,2013-06-29 19:00:00,
2013-06-29 15:15:00,69.1,64.0,29.61,North,355,2.0,4.0,84,0.00,,,0.01,weatherlink.com 1.10,2013-06-29 19:15:00,
2013-06-29 15:30:00,69.0,64.0,29.62,NE,50,3.0,3.0,85,0.00,,,0.01,weatherlink.com 1.10,2013-06-29 19:30:00,
2013-06-29 15:45:00,68.8,65.0,29.62,ENE,61,4.0,6.0,87,0.01,,,0.02,weatherlink.com 1.10,2013-06-29 19:45:00,
2013-06-29 16:00:00,68.9,66.0,29.62,SE,130,2.0,3.0,91,0.04,,,0.05,weatherlink.com 1.10,2013-06-29 20:00:00,
2013-06-29 16:15:00,69.4,66.0,29.62,ENE,73,2.0,6.0,89,0.04,,,0.05,weatherlink.com 1.10,2013-06-29 20:15:00,
2013-06-29 16:30:00,69.4,65.0,29.62,ESE,107,3.0,7.0,86,0.04,,,0.05,weatherlink.com 1.10,2013-06-29 20:30:00,
2013-06-29 16:45:00,69.8,66.0,29.62,ENE,71,2.0,4.0,86,0.03,,,0.05,weatherlink.com 1.10,2013-06-29 20:45:00,
2013-06-29 17:00:00,70.5,66.0,29.63,ENE,64,3.0,6.0,85,0.00,,,0.05,weatherlink.com 1.10,2013-06-29 21:00:00,
2013-06-29 17:15:00,70.5,66.0,29.63,ENE,62,3.0,7.0,84,0.00,,,0.05,weatherlink.com 1.10,2013-06-29 21:15:00,
2013-06-29 17:30:00,70.8,67.0,29.62,NNW,339,1.0,3.0,86,0.00,,,0.05,weatherlink.com 1.10,2013-06-29 21:30:00,
2013-06-29 17:45:00,70.8,66.0,29.62,NE,53,3.0,5.0,85,0.00,,,0.05,weatherlink.com 1.10,2013-06-29 21:45:00,
2013-06-29 18:00:00,70.4,66.0,29.63,ENE,60,3.0,4.0,85,0.00,,,0.05,weatherlink.com 1.10,2013-06-29 22:00:00,
2013-06-29 18:15:00,70.3,66.0,29.63,NE,40,1.0,4.0,86,0.00,,,0.05,weatherlink.com 1.10,2013-06-29 22:15:00,
2013-06-29 18:30:00,70.3,65.0,29.64,ENE,63,4.0,4.0,82,0.00,,,0.05,weatherlink.com 1.10,2013-06-29 22:30:00,
2013-06-29 18:45:00,70.1,65.0,29.64,ENE,63,0.0,2.0,84,0.00,,,0.05,weatherlink.com 1.10,2013-06-29 22:45:00,
2013-06-29 19:00:00,70.0,65.0,29.65,NE,51,2.0,3.0,83,0.00,,,0.05,weatherlink.com 1.10,2013-06-29 23:00:00,
2013-06-29 19:15:00,69.7,65.0,29.65,ENE,78,0.0,2.0,85,0.00,,,0.05,weatherlink.com 1.10,2013-06-29 23:15:00,
2013-06-29 19:31:00,68.8,64.0,29.65,SSE,150,1.0,8.0,84,0.00,,,0.05,weatherlink.com 1.10,2013-06-29 23:31:00,
2013-06-29 19:46:00,68.2,65.0,29.66,East,94,0.0,4.0,88,0.01,,,0.06,weatherlink.com 1.10,2013-06-29 23:46:00,
2013-06-29 20:01:00,67.8,65.0,29.66,East,99,1.0,3.0,89,0.01,,,0.06,weatherlink.com 1.10,2013-06-30 00:01:00,
2013-06-29 20:16:00,67.6,64.0,29.66,ENE,65,1.0,4.0,87,0.01,,,0.06,weatherlink.com 1.10,2013-06-30 00:16:00,
2013-06-29 20:31:00,67.2,64.0,29.67,NNE,33,0.0,2.0,89,0.01,,,0.06,weatherlink.com 1.10,2013-06-30 00:31:00,
2013-06-29 20:46:00,67.1,64.0,29.68,NNE,33,0.0,1.0,90,0.00,,,0.06,weatherlink.com 1.10,2013-06-30 00:46:00,
2013-06-29 21:01:00,67.0,65.0,29.68,NNE,33,1.0,1.0,92,0.00,,,0.06,weatherlink.com 1.10,2013-06-30 01:01:00,
2013-06-29 21:16:00,66.8,64.0,29.68,East,92,0.0,2.0,91,0.00,,,0.06,weatherlink.com 1.10,2013-06-30 01:16:00,
2013-06-29 21:31:00,66.8,64.0,29.69,ENE,77,1.0,2.0,91,0.00,,,0.06,weatherlink.com 1.10,2013-06-30 01:31:00,
2013-06-29 21:46:00,66.7,63.0,29.70,ESE,105,1.0,2.0,89,0.01,,,0.07,weatherlink.com 1.10,2013-06-30 01:46:00,
2013-06-29 22:01:00,66.2,63.0,29.70,East,93,0.0,2.0,90,0.01,,,0.07,weatherlink.com 1.10,2013-06-30 02:01:00,
2013-06-29 22:16:00,65.5,63.0,29.71,ESE,105,1.0,3.0,90,0.02,,,0.08,weatherlink.com 1.10,2013-06-30 02:16:00,
2013-06-29 22:31:00,64.7,62.0,29.71,East,98,2.0,3.0,89,0.02,,,0.08,weatherlink.com 1.10,2013-06-30 02:31:00,
2013-06-29 22:46:00,64.1,62.0,29.72,ESE,113,0.0,2.0,91,0.02,,,0.09,weatherlink.com 1.10,2013-06-30 02:46:00,
2013-06-29 23:01:00,63.9,61.0,29.72,ESE,118,0.0,2.0,91,0.02,,,0.09,weatherlink.com 1.10,2013-06-30 03:01:00,
2013-06-29 23:16:00,63.4,61.0,29.72,ENE,61,0.0,2.0,93,0.01,,,0.09,weatherlink.com 1.10,2013-06-30 03:16:00,
2013-06-29 23:31:00,63.1,61.0,29.73,ENE,61,1.0,1.0,94,0.01,,,0.09,weatherlink.com 1.10,2013-06-30 03:31:00,
2013-06-29 23:46:00,62.8,61.0,29.72,ENE,60,0.0,1.0,95,0.01,,,0.10,weatherlink.com 1.10,2013-06-30 03:46:00,